sensor_id;sensor_type;location;lat;lon;timestamp;P1;durP1;ratioP1;P2;durP2;ratioP2
35324;SDS011;35135;47.510;19.036;2023-04-03T00:00:30;3.30;;;2.60;;
35324;SDS011;35135;47.510;19.036;2023-04-03T00:02:56;4.00;;;2.40;;
35324;SDS011;35135;47.510;19.036;2023-04-03T00:05:22;3.85;;;2.70;;
35324;SDS011;35135;47.510;19.036;2023-04-03T00:07:48;2.75;;;2.38;;
35324;SDS011;35135;47.510;19.036;2023-04-03T00:10:15;3.67;;;2.63;;
35324;SDS011;35135;47.510;19.036;2023-04-03T00:12:40;2.75;;;2.25;;
35324;SDS011;35135;47.510;19.036;2023-04-03T00:15:07;4.82;;;2.78;;
35324;SDS011;35135;47.510;19.036;2023-04-03T00:17:33;3.30;;;2.55;;
35324;SDS011;35135;47.510;19.036;2023-04-03T00:19:58;3.00;;;2.70;;
35324;SDS011;35135;47.510;19.036;2023-04-03T00:22:24;2.97;;;2.67;;
35324;SDS011;35135;47.510;19.036;2023-04-03T00:24:51;2.58;;;2.38;;
35324;SDS011;35135;47.510;19.036;2023-04-03T00:27:17;2.88;;;2.63;;
35324;SDS011;35135;47.510;19.036;2023-04-03T00:29:43;3.00;;;2.63;;
35324;SDS011;35135;47.510;19.036;2023-04-03T00:32:08;2.60;;;2.22;;
35324;SDS011;35135;47.510;19.036;2023-04-03T00:34:34;3.10;;;2.80;;
35324;SDS011;35135;47.510;19.036;2023-04-03T00:37:00;2.88;;;2.58;;
35324;SDS011;35135;47.510;19.036;2023-04-03T00:39:25;2.75;;;2.55;;
35324;SDS011;35135;47.510;19.036;2023-04-03T00:41:51;3.63;;;2.85;;
35324;SDS011;35135;47.510;19.036;2023-04-03T00:47:03;2.80;;;2.45;;
35324;SDS011;35135;47.510;19.036;2023-04-03T00:49:32;2.55;;;2.35;;
35324;SDS011;35135;47.510;19.036;2023-04-03T00:51:58;3.72;;;2.90;;
35324;SDS011;35135;47.510;19.036;2023-04-03T00:54:24;2.67;;;2.47;;
35324;SDS011;35135;47.510;19.036;2023-04-03T00:56:51;3.30;;;2.58;;
35324;SDS011;35135;47.510;19.036;2023-04-03T00:59:25;3.63;;;3.00;;
35324;SDS011;35135;47.510;19.036;2023-04-03T01:01:55;3.10;;;2.80;;
35324;SDS011;35135;47.510;19.036;2023-04-03T01:04:28;3.33;;;3.03;;
35324;SDS011;35135;47.510;19.036;2023-04-03T01:06:57;2.90;;;2.70;;
35324;SDS011;35135;47.510;19.036;2023-04-03T01:09:26;2.85;;;2.55;;
35324;SDS011;35135;47.510;19.036;2023-04-03T01:11:52;3.00;;;2.70;;
35324;SDS011;35135;47.510;19.036;2023-04-03T01:14:18;3.30;;;2.45;;
35324;SDS011;35135;47.510;19.036;2023-04-03T01:16:51;2.70;;;2.38;;
35324;SDS011;35135;47.510;19.036;2023-04-03T01:19:18;2.58;;;2.38;;
35324;SDS011;35135;47.510;19.036;2023-04-03T01:24:39;3.13;;;2.70;;
35324;SDS011;35135;47.510;19.036;2023-04-03T01:27:06;2.55;;;2.35;;
35324;SDS011;35135;47.510;19.036;2023-04-03T01:29:35;2.90;;;2.60;;
35324;SDS011;35135;47.510;19.036;2023-04-03T01:32:02;2.90;;;2.60;;
35324;SDS011;35135;47.510;19.036;2023-04-03T01:34:28;3.50;;;2.53;;
35324;SDS011;35135;47.510;19.036;2023-04-03T01:36:55;3.67;;;2.53;;
35324;SDS011;35135;47.510;19.036;2023-04-03T01:39:21;3.33;;;3.03;;
35324;SDS011;35135;47.510;19.036;2023-04-03T01:41:47;2.80;;;2.55;;
35324;SDS011;35135;47.510;19.036;2023-04-03T01:44:13;2.83;;;2.53;;
35324;SDS011;35135;47.510;19.036;2023-04-03T01:46:39;2.72;;;2.50;;
35324;SDS011;35135;47.510;19.036;2023-04-03T01:49:07;2.60;;;2.30;;
35324;SDS011;35135;47.510;19.036;2023-04-03T01:51:33;2.78;;;2.33;;
35324;SDS011;35135;47.510;19.036;2023-04-03T01:53:59;3.00;;;2.70;;
35324;SDS011;35135;47.510;19.036;2023-04-03T01:56:25;2.67;;;2.45;;
35324;SDS011;35135;47.510;19.036;2023-04-03T01:58:51;2.88;;;2.35;;
35324;SDS011;35135;47.510;19.036;2023-04-03T02:01:17;3.08;;;2.72;;
35324;SDS011;35135;47.510;19.036;2023-04-03T02:03:43;2.80;;;2.60;;
35324;SDS011;35135;47.510;19.036;2023-04-03T02:06:09;3.05;;;2.63;;
35324;SDS011;35135;47.510;19.036;2023-04-03T02:08:35;2.90;;;2.63;;
35324;SDS011;35135;47.510;19.036;2023-04-03T02:11:00;2.63;;;2.42;;
35324;SDS011;35135;47.510;19.036;2023-04-03T02:13:26;4.38;;;2.72;;
35324;SDS011;35135;47.510;19.036;2023-04-03T02:15:52;2.55;;;2.35;;
35324;SDS011;35135;47.510;19.036;2023-04-03T02:18:17;2.70;;;2.50;;
35324;SDS011;35135;47.510;19.036;2023-04-03T02:20:43;2.72;;;2.50;;
35324;SDS011;35135;47.510;19.036;2023-04-03T02:23:09;2.42;;;2.22;;
35324;SDS011;35135;47.510;19.036;2023-04-03T02:25:35;2.97;;;2.63;;
35324;SDS011;35135;47.510;19.036;2023-04-03T02:28:00;2.50;;;2.30;;
35324;SDS011;35135;47.510;19.036;2023-04-03T02:30:26;2.60;;;2.40;;
35324;SDS011;35135;47.510;19.036;2023-04-03T02:32:52;2.60;;;2.40;;
35324;SDS011;35135;47.510;19.036;2023-04-03T02:35:18;2.60;;;2.38;;
35324;SDS011;35135;47.510;19.036;2023-04-03T02:37:43;2.60;;;2.40;;
35324;SDS011;35135;47.510;19.036;2023-04-03T02:40:09;2.40;;;2.20;;
35324;SDS011;35135;47.510;19.036;2023-04-03T02:42:36;2.72;;;2.53;;
35324;SDS011;35135;47.510;19.036;2023-04-03T02:45:02;2.55;;;2.22;;
35324;SDS011;35135;47.510;19.036;2023-04-03T02:47:28;2.53;;;2.13;;
35324;SDS011;35135;47.510;19.036;2023-04-03T02:49:54;2.65;;;2.45;;
35324;SDS011;35135;47.510;19.036;2023-04-03T02:52:20;2.40;;;2.20;;
35324;SDS011;35135;47.510;19.036;2023-04-03T02:54:45;2.60;;;2.40;;
35324;SDS011;35135;47.510;19.036;2023-04-03T02:57:11;2.40;;;2.20;;
35324;SDS011;35135;47.510;19.036;2023-04-03T02:59:37;2.58;;;2.38;;
35324;SDS011;35135;47.510;19.036;2023-04-03T03:02:06;3.00;;;2.30;;
35324;SDS011;35135;47.510;19.036;2023-04-03T03:04:33;2.35;;;2.15;;
35324;SDS011;35135;47.510;19.036;2023-04-03T03:06:59;3.15;;;2.17;;
35324;SDS011;35135;47.510;19.036;2023-04-03T03:09:25;2.72;;;2.10;;
35324;SDS011;35135;47.510;19.036;2023-04-03T03:11:51;2.60;;;2.40;;
35324;SDS011;35135;47.510;19.036;2023-04-03T03:14:17;1.98;;;1.88;;
35324;SDS011;35135;47.510;19.036;2023-04-03T03:16:43;2.97;;;2.63;;
35324;SDS011;35135;47.510;19.036;2023-04-03T03:19:08;2.58;;;2.38;;
35324;SDS011;35135;47.510;19.036;2023-04-03T03:21:34;3.15;;;2.30;;
35324;SDS011;35135;47.510;19.036;2023-04-03T03:24:00;2.45;;;2.25;;
35324;SDS011;35135;47.510;19.036;2023-04-03T03:26:26;2.42;;;2.17;;
35324;SDS011;35135;47.510;19.036;2023-04-03T03:28:51;2.33;;;2.00;;
35324;SDS011;35135;47.510;19.036;2023-04-03T03:31:17;2.30;;;2.10;;
35324;SDS011;35135;47.510;19.036;2023-04-03T03:33:43;2.17;;;1.98;;
35324;SDS011;35135;47.510;19.036;2023-04-03T03:36:08;2.13;;;1.92;;
35324;SDS011;35135;47.510;19.036;2023-04-03T03:38:34;2.67;;;2.30;;
35324;SDS011;35135;47.510;19.036;2023-04-03T03:41:00;2.17;;;1.98;;
35324;SDS011;35135;47.510;19.036;2023-04-03T03:43:26;2.75;;;2.10;;
35324;SDS011;35135;47.510;19.036;2023-04-03T03:45:52;2.92;;;1.73;;
35324;SDS011;35135;47.510;19.036;2023-04-03T03:48:19;2.20;;;2.00;;
35324;SDS011;35135;47.510;19.036;2023-04-03T03:50:46;3.00;;;2.22;;
35324;SDS011;35135;47.510;19.036;2023-04-03T03:53:12;2.78;;;2.20;;
35324;SDS011;35135;47.510;19.036;2023-04-03T03:55:37;2.15;;;1.88;;
35324;SDS011;35135;47.510;19.036;2023-04-03T03:58:03;2.28;;;2.08;;
35324;SDS011;35135;47.510;19.036;2023-04-03T04:00:29;2.42;;;2.20;;
35324;SDS011;35135;47.510;19.036;2023-04-03T04:02:55;2.00;;;1.80;;
35324;SDS011;35135;47.510;19.036;2023-04-03T04:05:21;2.70;;;2.25;;
35324;SDS011;35135;47.510;19.036;2023-04-03T04:07:47;2.60;;;2.30;;
35324;SDS011;35135;47.510;19.036;2023-04-03T04:10:13;2.40;;;2.15;;
35324;SDS011;35135;47.510;19.036;2023-04-03T04:12:39;2.47;;;2.20;;
35324;SDS011;35135;47.510;19.036;2023-04-03T04:15:05;2.25;;;2.05;;
35324;SDS011;35135;47.510;19.036;2023-04-03T04:17:31;2.08;;;1.88;;
35324;SDS011;35135;47.510;19.036;2023-04-03T04:19:56;2.33;;;2.13;;
35324;SDS011;35135;47.510;19.036;2023-04-03T04:22:22;2.75;;;2.22;;
35324;SDS011;35135;47.510;19.036;2023-04-03T04:24:48;2.72;;;2.10;;
35324;SDS011;35135;47.510;19.036;2023-04-03T04:27:13;2.20;;;2.00;;
35324;SDS011;35135;47.510;19.036;2023-04-03T04:29:41;2.22;;;2.03;;
35324;SDS011;35135;47.510;19.036;2023-04-03T04:32:06;2.15;;;1.90;;
35324;SDS011;35135;47.510;19.036;2023-04-03T04:34:33;2.13;;;1.90;;
35324;SDS011;35135;47.510;19.036;2023-04-03T04:36:59;1.98;;;1.77;;
35324;SDS011;35135;47.510;19.036;2023-04-03T04:39:25;2.80;;;2.10;;
35324;SDS011;35135;47.510;19.036;2023-04-03T04:41:50;2.45;;;2.10;;
35324;SDS011;35135;47.510;19.036;2023-04-03T04:44:16;1.98;;;1.70;;
35324;SDS011;35135;47.510;19.036;2023-04-03T04:46:42;2.05;;;1.83;;
35324;SDS011;35135;47.510;19.036;2023-04-03T04:49:07;2.60;;;2.10;;
35324;SDS011;35135;47.510;19.036;2023-04-03T04:51:33;2.42;;;1.90;;
35324;SDS011;35135;47.510;19.036;2023-04-03T04:53:59;2.40;;;1.90;;
35324;SDS011;35135;47.510;19.036;2023-04-03T04:56:25;2.25;;;2.05;;
35324;SDS011;35135;47.510;19.036;2023-04-03T04:58:51;2.45;;;1.85;;
35324;SDS011;35135;47.510;19.036;2023-04-03T05:01:16;2.38;;;2.13;;
35324;SDS011;35135;47.510;19.036;2023-04-03T05:03:43;3.30;;;2.10;;
35324;SDS011;35135;47.510;19.036;2023-04-03T05:06:09;5.97;;;2.00;;
35324;SDS011;35135;47.510;19.036;2023-04-03T05:08:35;2.25;;;1.90;;
35324;SDS011;35135;47.510;19.036;2023-04-03T05:11:00;3.42;;;2.60;;
35324;SDS011;35135;47.510;19.036;2023-04-03T05:13:26;6.18;;;2.70;;
35324;SDS011;35135;47.510;19.036;2023-04-03T05:15:52;9.02;;;3.00;;
35324;SDS011;35135;47.510;19.036;2023-04-03T05:18:18;8.18;;;3.53;;
35324;SDS011;35135;47.510;19.036;2023-04-03T05:20:43;11.57;;;3.85;;
35324;SDS011;35135;47.510;19.036;2023-04-03T05:23:09;5.65;;;3.30;;
35324;SDS011;35135;47.510;19.036;2023-04-03T05:25:39;9.10;;;3.55;;
35324;SDS011;35135;47.510;19.036;2023-04-03T05:28:04;6.15;;;2.80;;
35324;SDS011;35135;47.510;19.036;2023-04-03T05:30:30;10.10;;;3.28;;
35324;SDS011;35135;47.510;19.036;2023-04-03T05:32:56;8.35;;;3.75;;
35324;SDS011;35135;47.510;19.036;2023-04-03T05:35:23;9.75;;;4.10;;
35324;SDS011;35135;47.510;19.036;2023-04-03T05:37:49;7.45;;;3.25;;
35324;SDS011;35135;47.510;19.036;2023-04-03T05:40:15;15.95;;;3.63;;
35324;SDS011;35135;47.510;19.036;2023-04-03T05:42:40;12.95;;;3.72;;
35324;SDS011;35135;47.510;19.036;2023-04-03T05:45:06;8.70;;;3.05;;
35324;SDS011;35135;47.510;19.036;2023-04-03T05:47:32;9.57;;;3.17;;
35324;SDS011;35135;47.510;19.036;2023-04-03T05:49:58;6.50;;;3.20;;
35324;SDS011;35135;47.510;19.036;2023-04-03T05:52:28;8.50;;;3.10;;
35324;SDS011;35135;47.510;19.036;2023-04-03T05:54:55;7.20;;;3.20;;
35324;SDS011;35135;47.510;19.036;2023-04-03T05:57:21;10.35;;;3.10;;
35324;SDS011;35135;47.510;19.036;2023-04-03T05:59:47;10.23;;;3.55;;
35324;SDS011;35135;47.510;19.036;2023-04-03T06:02:18;7.82;;;3.50;;
35324;SDS011;35135;47.510;19.036;2023-04-03T06:04:45;8.17;;;3.50;;
35324;SDS011;35135;47.510;19.036;2023-04-03T06:07:13;8.23;;;3.40;;
35324;SDS011;35135;47.510;19.036;2023-04-03T06:09:47;10.40;;;3.53;;
35324;SDS011;35135;47.510;19.036;2023-04-03T06:12:16;7.03;;;3.15;;
35324;SDS011;35135;47.510;19.036;2023-04-03T06:14:42;9.35;;;3.00;;
35324;SDS011;35135;47.510;19.036;2023-04-03T06:17:08;8.15;;;3.40;;
35324;SDS011;35135;47.510;19.036;2023-04-03T06:19:34;5.75;;;2.70;;
35324;SDS011;35135;47.510;19.036;2023-04-03T06:22:00;8.63;;;2.92;;
35324;SDS011;35135;47.510;19.036;2023-04-03T06:24:28;5.50;;;2.63;;
35324;SDS011;35135;47.510;19.036;2023-04-03T06:26:54;6.90;;;2.85;;
35324;SDS011;35135;47.510;19.036;2023-04-03T06:29:20;8.45;;;2.83;;
35324;SDS011;35135;47.510;19.036;2023-04-03T06:31:46;5.97;;;2.72;;
35324;SDS011;35135;47.510;19.036;2023-04-03T06:34:11;8.52;;;3.05;;
35324;SDS011;35135;47.510;19.036;2023-04-03T06:36:38;7.80;;;3.10;;
35324;SDS011;35135;47.510;19.036;2023-04-03T06:39:04;7.07;;;3.00;;
35324;SDS011;35135;47.510;19.036;2023-04-03T06:41:30;5.38;;;2.75;;
35324;SDS011;35135;47.510;19.036;2023-04-03T06:43:56;4.15;;;2.70;;
35324;SDS011;35135;47.510;19.036;2023-04-03T06:46:23;4.45;;;2.30;;
35324;SDS011;35135;47.510;19.036;2023-04-03T06:48:50;4.45;;;2.30;;
35324;SDS011;35135;47.510;19.036;2023-04-03T06:51:24;4.82;;;2.60;;
35324;SDS011;35135;47.510;19.036;2023-04-03T06:53:52;5.30;;;2.50;;
35324;SDS011;35135;47.510;19.036;2023-04-03T06:56:19;5.72;;;2.47;;
35324;SDS011;35135;47.510;19.036;2023-04-03T06:58:46;7.18;;;2.67;;
35324;SDS011;35135;47.510;19.036;2023-04-03T07:01:12;3.72;;;2.33;;
35324;SDS011;35135;47.510;19.036;2023-04-03T07:03:39;4.63;;;2.28;;
35324;SDS011;35135;47.510;19.036;2023-04-03T07:06:06;4.55;;;2.40;;
35324;SDS011;35135;47.510;19.036;2023-04-03T07:08:34;4.28;;;2.35;;
35324;SDS011;35135;47.510;19.036;2023-04-03T07:11:00;2.67;;;1.60;;
35324;SDS011;35135;47.510;19.036;2023-04-03T07:13:26;4.05;;;2.20;;
35324;SDS011;35135;47.510;19.036;2023-04-03T07:15:51;4.47;;;2.40;;
35324;SDS011;35135;47.510;19.036;2023-04-03T07:18:18;4.07;;;2.53;;
35324;SDS011;35135;47.510;19.036;2023-04-03T07:20:44;4.45;;;2.13;;
35324;SDS011;35135;47.510;19.036;2023-04-03T07:23:10;3.22;;;1.73;;
35324;SDS011;35135;47.510;19.036;2023-04-03T07:25:36;3.75;;;2.20;;
35324;SDS011;35135;47.510;19.036;2023-04-03T07:28:02;3.30;;;1.90;;
35324;SDS011;35135;47.510;19.036;2023-04-03T07:30:28;2.72;;;1.88;;
35324;SDS011;35135;47.510;19.036;2023-04-03T07:32:54;3.65;;;2.13;;
35324;SDS011;35135;47.510;19.036;2023-04-03T07:35:20;3.85;;;2.33;;
35324;SDS011;35135;47.510;19.036;2023-04-03T07:37:46;4.53;;;2.05;;
35324;SDS011;35135;47.510;19.036;2023-04-03T07:40:12;3.67;;;2.17;;
35324;SDS011;35135;47.510;19.036;2023-04-03T07:42:37;2.80;;;1.70;;
35324;SDS011;35135;47.510;19.036;2023-04-03T07:45:03;3.63;;;2.20;;
35324;SDS011;35135;47.510;19.036;2023-04-03T07:47:29;3.25;;;2.03;;
35324;SDS011;35135;47.510;19.036;2023-04-03T07:49:56;2.25;;;1.52;;
35324;SDS011;35135;47.510;19.036;2023-04-03T07:52:22;2.53;;;1.85;;
35324;SDS011;35135;47.510;19.036;2023-04-03T07:54:48;2.75;;;1.90;;
35324;SDS011;35135;47.510;19.036;2023-04-03T07:57:14;2.67;;;1.77;;
35324;SDS011;35135;47.510;19.036;2023-04-03T07:59:40;2.30;;;1.73;;
35324;SDS011;35135;47.510;19.036;2023-04-03T08:02:10;5.50;;;1.98;;
35324;SDS011;35135;47.510;19.036;2023-04-03T08:04:37;2.40;;;1.73;;
35324;SDS011;35135;47.510;19.036;2023-04-03T08:07:02;3.05;;;2.00;;
35324;SDS011;35135;47.510;19.036;2023-04-03T08:09:28;2.55;;;1.92;;
35324;SDS011;35135;47.510;19.036;2023-04-03T08:11:54;3.25;;;1.70;;
35324;SDS011;35135;47.510;19.036;2023-04-03T08:14:20;2.92;;;1.80;;
35324;SDS011;35135;47.510;19.036;2023-04-03T08:16:46;3.25;;;1.80;;
35324;SDS011;35135;47.510;19.036;2023-04-03T08:19:13;4.25;;;1.70;;
35324;SDS011;35135;47.510;19.036;2023-04-03T08:21:40;2.92;;;1.73;;
35324;SDS011;35135;47.510;19.036;2023-04-03T08:24:07;3.78;;;1.90;;
35324;SDS011;35135;47.510;19.036;2023-04-03T08:26:33;2.65;;;2.00;;
35324;SDS011;35135;47.510;19.036;2023-04-03T08:28:59;2.95;;;1.52;;
35324;SDS011;35135;47.510;19.036;2023-04-03T08:31:26;2.10;;;1.42;;
35324;SDS011;35135;47.510;19.036;2023-04-03T08:33:52;1.83;;;1.52;;
35324;SDS011;35135;47.510;19.036;2023-04-03T08:36:22;2.85;;;1.52;;
35324;SDS011;35135;47.510;19.036;2023-04-03T08:38:50;2.22;;;1.55;;
35324;SDS011;35135;47.510;19.036;2023-04-03T08:46:24;2.10;;;1.50;;
35324;SDS011;35135;47.510;19.036;2023-04-03T08:49:01;2.45;;;1.50;;
35324;SDS011;35135;47.510;19.036;2023-04-03T08:51:26;2.17;;;1.38;;
35324;SDS011;35135;47.510;19.036;2023-04-03T08:53:56;2.47;;;1.50;;
35324;SDS011;35135;47.510;19.036;2023-04-03T08:56:27;3.25;;;1.50;;
35324;SDS011;35135;47.510;19.036;2023-04-03T08:59:06;2.15;;;1.20;;
35324;SDS011;35135;47.510;19.036;2023-04-03T09:01:39;2.90;;;1.30;;
35324;SDS011;35135;47.510;19.036;2023-04-03T09:04:10;4.07;;;1.40;;
35324;SDS011;35135;47.510;19.036;2023-04-03T09:06:38;2.75;;;1.55;;
35324;SDS011;35135;47.510;19.036;2023-04-03T09:12:03;1.77;;;1.25;;
35324;SDS011;35135;47.510;19.036;2023-04-03T09:17:41;2.22;;;1.40;;
35324;SDS011;35135;47.510;19.036;2023-04-03T09:20:13;2.00;;;1.33;;
35324;SDS011;35135;47.510;19.036;2023-04-03T09:22:50;1.95;;;1.38;;
35324;SDS011;35135;47.510;19.036;2023-04-03T09:27:46;1.90;;;1.40;;
35324;SDS011;35135;47.510;19.036;2023-04-03T09:30:14;1.83;;;1.27;;
35324;SDS011;35135;47.510;19.036;2023-04-03T09:32:43;1.65;;;1.20;;
35324;SDS011;35135;47.510;19.036;2023-04-03T09:38:00;1.33;;;1.05;;
35324;SDS011;35135;47.510;19.036;2023-04-03T09:40:41;1.92;;;1.38;;
35324;SDS011;35135;47.510;19.036;2023-04-03T09:43:25;1.67;;;1.17;;
35324;SDS011;35135;47.510;19.036;2023-04-03T09:45:53;2.20;;;1.17;;
35324;SDS011;35135;47.510;19.036;2023-04-03T09:48:23;2.88;;;1.20;;
35324;SDS011;35135;47.510;19.036;2023-04-03T09:56:01;3.33;;;1.40;;
35324;SDS011;35135;47.510;19.036;2023-04-03T09:58:49;2.53;;;1.60;;
35324;SDS011;35135;47.510;19.036;2023-04-03T10:01:27;1.60;;;1.20;;
35324;SDS011;35135;47.510;19.036;2023-04-03T10:04:13;1.30;;;1.10;;
35324;SDS011;35135;47.510;19.036;2023-04-03T10:06:45;1.55;;;1.20;;
35324;SDS011;35135;47.510;19.036;2023-04-03T10:19:53;2.55;;;1.05;;
35324;SDS011;35135;47.510;19.036;2023-04-03T10:22:49;1.30;;;1.20;;
35324;SDS011;35135;47.510;19.036;2023-04-03T10:25:40;1.52;;;1.13;;
35324;SDS011;35135;47.510;19.036;2023-04-03T10:47:28;1.70;;;1.30;;
35324;SDS011;35135;47.510;19.036;2023-04-03T10:52:31;1.63;;;1.05;;
35324;SDS011;35135;47.510;19.036;2023-04-03T10:57:57;1.10;;;0.90;;
35324;SDS011;35135;47.510;19.036;2023-04-03T11:00:33;2.00;;;1.13;;
35324;SDS011;35135;47.510;19.036;2023-04-03T11:03:16;1.38;;;0.90;;
35324;SDS011;35135;47.510;19.036;2023-04-03T11:06:04;2.03;;;1.02;;
35324;SDS011;35135;47.510;19.036;2023-04-03T11:11:11;1.63;;;1.27;;
35324;SDS011;35135;47.510;19.036;2023-04-03T11:13:43;1.40;;;1.02;;
35324;SDS011;35135;47.510;19.036;2023-04-03T11:16:13;1.45;;;0.82;;
35324;SDS011;35135;47.510;19.036;2023-04-03T11:21:28;1.65;;;1.00;;
35324;SDS011;35135;47.510;19.036;2023-04-03T11:24:00;1.10;;;1.00;;
35324;SDS011;35135;47.510;19.036;2023-04-03T11:26:31;1.00;;;0.90;;
35324;SDS011;35135;47.510;19.036;2023-04-03T11:31:52;1.55;;;1.00;;
35324;SDS011;35135;47.510;19.036;2023-04-03T11:34:58;1.13;;;0.93;;
35324;SDS011;35135;47.510;19.036;2023-04-03T11:37:35;1.48;;;0.88;;
35324;SDS011;35135;47.510;19.036;2023-04-03T11:42:43;1.77;;;0.93;;
35324;SDS011;35135;47.510;19.036;2023-04-03T11:45:16;1.15;;;0.90;;
35324;SDS011;35135;47.510;19.036;2023-04-03T11:48:05;1.48;;;1.00;;
35324;SDS011;35135;47.510;19.036;2023-04-03T11:50:44;1.13;;;0.98;;
35324;SDS011;35135;47.510;19.036;2023-04-03T11:55:43;2.15;;;1.00;;
35324;SDS011;35135;47.510;19.036;2023-04-03T11:58:20;1.60;;;1.00;;
35324;SDS011;35135;47.510;19.036;2023-04-03T12:05:51;1.85;;;0.90;;
35324;SDS011;35135;47.510;19.036;2023-04-03T12:13:34;1.42;;;1.08;;
35324;SDS011;35135;47.510;19.036;2023-04-03T12:16:02;2.95;;;1.27;;
35324;SDS011;35135;47.510;19.036;2023-04-03T12:21:13;1.73;;;1.05;;
35324;SDS011;35135;47.510;19.036;2023-04-03T12:23:57;3.38;;;0.98;;
35324;SDS011;35135;47.510;19.036;2023-04-03T12:26:25;1.73;;;1.20;;
35324;SDS011;35135;47.510;19.036;2023-04-03T12:28:53;4.03;;;1.23;;
35324;SDS011;35135;47.510;19.036;2023-04-03T12:31:20;3.70;;;1.00;;
35324;SDS011;35135;47.510;19.036;2023-04-03T12:43:07;3.28;;;1.02;;
35324;SDS011;35135;47.510;19.036;2023-04-03T12:48:33;1.58;;;0.70;;
35324;SDS011;35135;47.510;19.036;2023-04-03T12:51:04;3.45;;;1.17;;
35324;SDS011;35135;47.510;19.036;2023-04-03T12:53:32;2.80;;;1.25;;
35324;SDS011;35135;47.510;19.036;2023-04-03T12:56:22;1.58;;;0.90;;
35324;SDS011;35135;47.510;19.036;2023-04-03T12:58:54;3.75;;;0.90;;
35324;SDS011;35135;47.510;19.036;2023-04-03T13:01:37;1.05;;;0.80;;
35324;SDS011;35135;47.510;19.036;2023-04-03T13:04:03;2.13;;;1.02;;
35324;SDS011;35135;47.510;19.036;2023-04-03T13:06:42;3.28;;;1.02;;
35324;SDS011;35135;47.510;19.036;2023-04-03T13:09:25;2.72;;;0.90;;
35324;SDS011;35135;47.510;19.036;2023-04-03T13:14:33;1.52;;;1.10;;
35324;SDS011;35135;47.510;19.036;2023-04-03T13:17:20;2.88;;;0.90;;
35324;SDS011;35135;47.510;19.036;2023-04-03T13:19:46;2.20;;;0.80;;
35324;SDS011;35135;47.510;19.036;2023-04-03T13:22:34;2.97;;;1.00;;
35324;SDS011;35135;47.510;19.036;2023-04-03T13:25:08;1.58;;;0.80;;
35324;SDS011;35135;47.510;19.036;2023-04-03T13:27:38;1.63;;;0.93;;
35324;SDS011;35135;47.510;19.036;2023-04-03T13:30:04;2.92;;;0.93;;
35324;SDS011;35135;47.510;19.036;2023-04-03T13:32:31;2.60;;;1.00;;
35324;SDS011;35135;47.510;19.036;2023-04-03T13:34:57;1.98;;;0.80;;
35324;SDS011;35135;47.510;19.036;2023-04-03T13:37:28;1.23;;;0.77;;
35324;SDS011;35135;47.510;19.036;2023-04-03T13:40:10;1.83;;;0.80;;
35324;SDS011;35135;47.510;19.036;2023-04-03T13:42:39;2.05;;;0.73;;
35324;SDS011;35135;47.510;19.036;2023-04-03T13:45:10;1.83;;;0.93;;
35324;SDS011;35135;47.510;19.036;2023-04-03T13:47:40;1.33;;;0.80;;
35324;SDS011;35135;47.510;19.036;2023-04-03T13:52:43;1.95;;;0.88;;
35324;SDS011;35135;47.510;19.036;2023-04-03T13:55:55;2.80;;;0.85;;
35324;SDS011;35135;47.510;19.036;2023-04-03T13:58:33;2.25;;;0.98;;
35324;SDS011;35135;47.510;19.036;2023-04-03T14:01:06;3.28;;;1.10;;
35324;SDS011;35135;47.510;19.036;2023-04-03T14:03:53;5.63;;;1.52;;
35324;SDS011;35135;47.510;19.036;2023-04-03T14:06:21;2.55;;;1.13;;
35324;SDS011;35135;47.510;19.036;2023-04-03T14:08:47;3.75;;;0.90;;
35324;SDS011;35135;47.510;19.036;2023-04-03T14:13:46;3.10;;;1.05;;
35324;SDS011;35135;47.510;19.036;2023-04-03T14:16:18;4.68;;;1.20;;
35324;SDS011;35135;47.510;19.036;2023-04-03T14:18:46;3.03;;;1.15;;
35324;SDS011;35135;47.510;19.036;2023-04-03T14:21:13;2.53;;;0.90;;
35324;SDS011;35135;47.510;19.036;2023-04-03T14:23:40;4.35;;;0.98;;
35324;SDS011;35135;47.510;19.036;2023-04-03T14:26:14;3.90;;;1.05;;
35324;SDS011;35135;47.510;19.036;2023-04-03T14:28:45;2.40;;;0.80;;
35324;SDS011;35135;47.510;19.036;2023-04-03T14:31:12;1.75;;;0.80;;
35324;SDS011;35135;47.510;19.036;2023-04-03T14:33:39;3.05;;;0.90;;
35324;SDS011;35135;47.510;19.036;2023-04-03T14:36:15;1.30;;;0.73;;
35324;SDS011;35135;47.510;19.036;2023-04-03T14:38:43;2.65;;;0.90;;
35324;SDS011;35135;47.510;19.036;2023-04-03T14:41:11;3.03;;;0.98;;
35324;SDS011;35135;47.510;19.036;2023-04-03T14:43:38;2.30;;;0.80;;
35324;SDS011;35135;47.510;19.036;2023-04-03T14:46:04;1.92;;;0.80;;
35324;SDS011;35135;47.510;19.036;2023-04-03T14:48:34;1.77;;;0.93;;
35324;SDS011;35135;47.510;19.036;2023-04-03T14:51:00;1.20;;;0.80;;
35324;SDS011;35135;47.510;19.036;2023-04-03T14:53:26;1.02;;;0.80;;
35324;SDS011;35135;47.510;19.036;2023-04-03T14:55:54;1.75;;;0.80;;
35324;SDS011;35135;47.510;19.036;2023-04-03T14:58:20;2.42;;;0.75;;
35324;SDS011;35135;47.510;19.036;2023-04-03T15:00:46;2.53;;;1.00;;
35324;SDS011;35135;47.510;19.036;2023-04-03T15:03:21;1.92;;;0.90;;
35324;SDS011;35135;47.510;19.036;2023-04-03T15:05:48;3.17;;;0.80;;
35324;SDS011;35135;47.510;19.036;2023-04-03T15:08:24;2.20;;;0.90;;
35324;SDS011;35135;47.510;19.036;2023-04-03T15:10:54;2.28;;;0.93;;
35324;SDS011;35135;47.510;19.036;2023-04-03T15:13:21;2.08;;;1.00;;
35324;SDS011;35135;47.510;19.036;2023-04-03T15:15:47;3.15;;;1.10;;
35324;SDS011;35135;47.510;19.036;2023-04-03T15:18:18;2.65;;;1.15;;
35324;SDS011;35135;47.510;19.036;2023-04-03T15:20:51;3.50;;;1.40;;
35324;SDS011;35135;47.510;19.036;2023-04-03T15:23:17;5.75;;;1.00;;
35324;SDS011;35135;47.510;19.036;2023-04-03T15:25:43;3.38;;;1.30;;
35324;SDS011;35135;47.510;19.036;2023-04-03T15:28:18;4.03;;;1.02;;
35324;SDS011;35135;47.510;19.036;2023-04-03T15:30:47;4.13;;;1.23;;
35324;SDS011;35135;47.510;19.036;2023-04-03T15:33:13;5.93;;;1.08;;
35324;SDS011;35135;47.510;19.036;2023-04-03T15:35:40;4.50;;;1.20;;
35324;SDS011;35135;47.510;19.036;2023-04-03T15:38:06;3.80;;;1.08;;
35324;SDS011;35135;47.510;19.036;2023-04-03T15:40:32;4.10;;;0.98;;
35324;SDS011;35135;47.510;19.036;2023-04-03T15:42:59;6.20;;;1.48;;
35324;SDS011;35135;47.510;19.036;2023-04-03T15:45:27;4.70;;;1.00;;
35324;SDS011;35135;47.510;19.036;2023-04-03T15:47:54;3.42;;;1.50;;
35324;SDS011;35135;47.510;19.036;2023-04-03T15:50:20;5.00;;;1.20;;
35324;SDS011;35135;47.510;19.036;2023-04-03T15:52:48;4.88;;;1.85;;
35324;SDS011;35135;47.510;19.036;2023-04-03T15:55:18;4.35;;;1.27;;
35324;SDS011;35135;47.510;19.036;2023-04-03T15:57:48;7.80;;;1.67;;
35324;SDS011;35135;47.510;19.036;2023-04-03T16:00:14;4.20;;;1.63;;
35324;SDS011;35135;47.510;19.036;2023-04-03T16:02:41;7.28;;;1.55;;
35324;SDS011;35135;47.510;19.036;2023-04-03T16:05:09;3.85;;;1.20;;
35324;SDS011;35135;47.510;19.036;2023-04-03T16:07:36;4.43;;;1.38;;
35324;SDS011;35135;47.510;19.036;2023-04-03T16:10:03;5.78;;;1.80;;
35324;SDS011;35135;47.510;19.036;2023-04-03T16:12:29;7.72;;;1.90;;
35324;SDS011;35135;47.510;19.036;2023-04-03T16:14:55;7.63;;;1.77;;
35324;SDS011;35135;47.510;19.036;2023-04-03T16:17:21;4.53;;;1.75;;
35324;SDS011;35135;47.510;19.036;2023-04-03T16:19:47;5.38;;;1.70;;
35324;SDS011;35135;47.510;19.036;2023-04-03T16:22:12;7.10;;;1.80;;
35324;SDS011;35135;47.510;19.036;2023-04-03T16:24:38;5.90;;;1.40;;
35324;SDS011;35135;47.510;19.036;2023-04-03T16:27:04;6.43;;;1.70;;
35324;SDS011;35135;47.510;19.036;2023-04-03T16:29:30;6.47;;;1.80;;